sensor_id;sensor_type;location;lat;lon;timestamp;temperature;humidity
18658;DHT22;9458;50.942;5.074;2023-04-24T00:00:12;10.00;99.90
18658;DHT22;9458;50.942;5.074;2023-04-24T00:02:48;9.90;99.90
18658;DHT22;9458;50.942;5.074;2023-04-24T00:05:30;10.00;99.90
18658;DHT22;9458;50.942;5.074;2023-04-24T00:08:03;10.00;99.90
18658;DHT22;9458;50.942;5.074;2023-04-24T00:10:41;10.00;99.90
18658;DHT22;9458;50.942;5.074;2023-04-24T00:13:20;9.90;99.90
18658;DHT22;9458;50.942;5.074;2023-04-24T00:15:50;9.90;99.90
18658;DHT22;9458;50.942;5.074;2023-04-24T00:18:21;9.90;99.90
18658;DHT22;9458;50.942;5.074;2023-04-24T00:20:50;10.00;99.90
18658;DHT22;9458;50.942;5.074;2023-04-24T00:23:19;10.00;99.90
18658;DHT22;9458;50.942;5.074;2023-04-24T00:25:52;9.90;99.90
18658;DHT22;9458;50.942;5.074;2023-04-24T00:28:22;9.90;99.90
18658;DHT22;9458;50.942;5.074;2023-04-24T00:30:56;9.90;99.90
18658;DHT22;9458;50.942;5.074;2023-04-24T00:33:25;9.90;99.90
18658;DHT22;9458;50.942;5.074;2023-04-24T00:35:55;10.00;99.90
18658;DHT22;9458;50.942;5.074;2023-04-24T00:38:22;9.90;99.90
18658;DHT22;9458;50.942;5.074;2023-04-24T00:40:51;10.00;99.90
18658;DHT22;9458;50.942;5.074;2023-04-24T00:43:21;10.00;99.90
18658;DHT22;9458;50.942;5.074;2023-04-24T00:45:52;10.00;99.90
18658;DHT22;9458;50.942;5.074;2023-04-24T00:48:23;9.90;99.90
18658;DHT22;9458;50.942;5.074;2023-04-24T00:50:54;9.90;99.90
18658;DHT22;9458;50.942;5.074;2023-04-24T00:53:24;9.90;99.90
18658;DHT22;9458;50.942;5.074;2023-04-24T00:55:52;9.90;99.90
18658;DHT22;9458;50.942;5.074;2023-04-24T00:58:21;9.90;99.90
18658;DHT22;9458;50.942;5.074;2023-04-24T01:00:49;9.90;99.90
18658;DHT22;9458;50.942;5.074;2023-04-24T01:03:30;9.90;99.90
18658;DHT22;9458;50.942;5.074;2023-04-24T01:05:58;9.90;99.90
18658;DHT22;9458;50.942;5.074;2023-04-24T01:08:28;9.90;99.90
18658;DHT22;9458;50.942;5.074;2023-04-24T01:10:57;9.90;99.90
18658;DHT22;9458;50.942;5.074;2023-04-24T01:13:26;9.90;99.90
18658;DHT22;9458;50.942;5.074;2023-04-24T01:15:54;9.90;99.90
18658;DHT22;9458;50.942;5.074;2023-04-24T01:18:26;9.90;99.90
18658;DHT22;9458;50.942;5.074;2023-04-24T01:21:03;9.90;99.90
18658;DHT22;9458;50.942;5.074;2023-04-24T01:23:33;9.90;99.90
18658;DHT22;9458;50.942;5.074;2023-04-24T01:26:01;9.80;99.90
18658;DHT22;9458;50.942;5.074;2023-04-24T01:28:31;9.70;99.90
18658;DHT22;9458;50.942;5.074;2023-04-24T01:30:59;9.80;99.90
18658;DHT22;9458;50.942;5.074;2023-04-24T01:33:29;9.70;99.90
18658;DHT22;9458;50.942;5.074;2023-04-24T01:35:58;9.70;99.90
18658;DHT22;9458;50.942;5.074;2023-04-24T01:38:30;9.70;99.90
18658;DHT22;9458;50.942;5.074;2023-04-24T01:40:59;9.60;99.90
18658;DHT22;9458;50.942;5.074;2023-04-24T01:43:32;9.60;99.90
18658;DHT22;9458;50.942;5.074;2023-04-24T01:45:59;9.60;99.90
18658;DHT22;9458;50.942;5.074;2023-04-24T01:48:28;9.60;99.90
18658;DHT22;9458;50.942;5.074;2023-04-24T01:50:57;9.60;99.90
18658;DHT22;9458;50.942;5.074;2023-04-24T01:53:24;9.60;99.90
18658;DHT22;9458;50.942;5.074;2023-04-24T01:55:52;9.60;99.90
18658;DHT22;9458;50.942;5.074;2023-04-24T01:58:21;9.60;99.90
18658;DHT22;9458;50.942;5.074;2023-04-24T02:00:49;9.60;99.90
18658;DHT22;9458;50.942;5.074;2023-04-24T02:03:19;9.60;99.90
18658;DHT22;9458;50.942;5.074;2023-04-24T02:05:47;9.50;99.90
18658;DHT22;9458;50.942;5.074;2023-04-24T02:08:14;9.50;99.90
18658;DHT22;9458;50.942;5.074;2023-04-24T02:10:42;9.50;99.90
18658;DHT22;9458;50.942;5.074;2023-04-24T02:13:10;9.60;99.90
18658;DHT22;9458;50.942;5.074;2023-04-24T02:15:39;9.60;99.90
18658;DHT22;9458;50.942;5.074;2023-04-24T02:18:06;9.50;99.90
18658;DHT22;9458;50.942;5.074;2023-04-24T02:20:35;9.40;99.90
18658;DHT22;9458;50.942;5.074;2023-04-24T02:23:05;9.40;99.90
18658;DHT22;9458;50.942;5.074;2023-04-24T02:25:33;9.30;99.90
18658;DHT22;9458;50.942;5.074;2023-04-24T02:28:01;9.30;99.90
18658;DHT22;9458;50.942;5.074;2023-04-24T02:30:28;9.30;99.90
18658;DHT22;9458;50.942;5.074;2023-04-24T02:32:58;9.40;99.90
18658;DHT22;9458;50.942;5.074;2023-04-24T02:35:26;9.40;99.90
18658;DHT22;9458;50.942;5.074;2023-04-24T02:37:56;9.50;99.90
18658;DHT22;9458;50.942;5.074;2023-04-24T02:40:23;9.30;99.90
18658;DHT22;9458;50.942;5.074;2023-04-24T02:42:53;9.40;99.90
18658;DHT22;9458;50.942;5.074;2023-04-24T02:45:21;9.40;99.90
18658;DHT22;9458;50.942;5.074;2023-04-24T02:47:51;9.50;99.90
18658;DHT22;9458;50.942;5.074;2023-04-24T02:50:20;9.50;99.90
18658;DHT22;9458;50.942;5.074;2023-04-24T02:52:48;9.50;99.90
18658;DHT22;9458;50.942;5.074;2023-04-24T02:55:16;9.40;99.90
18658;DHT22;9458;50.942;5.074;2023-04-24T02:57:45;9.40;99.90
18658;DHT22;9458;50.942;5.074;2023-04-24T03:00:12;9.50;99.90
18658;DHT22;9458;50.942;5.074;2023-04-24T03:02:42;9.40;99.90
18658;DHT22;9458;50.942;5.074;2023-04-24T03:05:14;9.30;99.90
18658;DHT22;9458;50.942;5.074;2023-04-24T03:07:44;9.40;99.90
18658;DHT22;9458;50.942;5.074;2023-04-24T03:10:12;9.40;99.90
18658;DHT22;9458;50.942;5.074;2023-04-24T03:12:44;9.30;99.90
18658;DHT22;9458;50.942;5.074;2023-04-24T03:15:17;9.30;99.90
18658;DHT22;9458;50.942;5.074;2023-04-24T03:17:45;9.20;99.90
18658;DHT22;9458;50.942;5.074;2023-04-24T03:20:13;9.20;99.90
18658;DHT22;9458;50.942;5.074;2023-04-24T03:22:44;9.20;99.90
18658;DHT22;9458;50.942;5.074;2023-04-24T03:25:12;9.20;99.90
18658;DHT22;9458;50.942;5.074;2023-04-24T03:27:39;9.20;99.90
18658;DHT22;9458;50.942;5.074;2023-04-24T03:30:09;9.10;99.90
18658;DHT22;9458;50.942;5.074;2023-04-24T03:32:37;9.00;99.90
18658;DHT22;9458;50.942;5.074;2023-04-24T03:35:06;9.00;99.90
18658;DHT22;9458;50.942;5.074;2023-04-24T03:37:35;9.00;99.90
18658;DHT22;9458;50.942;5.074;2023-04-24T03:40:04;9.00;99.90
18658;DHT22;9458;50.942;5.074;2023-04-24T03:42:35;9.00;99.90
18658;DHT22;9458;50.942;5.074;2023-04-24T03:45:03;9.00;99.90
18658;DHT22;9458;50.942;5.074;2023-04-24T03:47:32;9.00;99.90
18658;DHT22;9458;50.942;5.074;2023-04-24T03:50:00;9.00;99.90
18658;DHT22;9458;50.942;5.074;2023-04-24T03:52:27;9.00;99.90
18658;DHT22;9458;50.942;5.074;2023-04-24T03:54:57;9.00;99.90
18658;DHT22;9458;50.942;5.074;2023-04-24T03:57:27;8.90;99.90
18658;DHT22;9458;50.942;5.074;2023-04-24T03:59:56;8.90;99.90
18658;DHT22;9458;50.942;5.074;2023-04-24T04:02:23;8.90;99.90
18658;DHT22;9458;50.942;5.074;2023-04-24T04:04:50;8.90;99.90
18658;DHT22;9458;50.942;5.074;2023-04-24T04:07:28;8.90;99.90
18658;DHT22;9458;50.942;5.074;2023-04-24T04:09:56;8.90;99.90
18658;DHT22;9458;50.942;5.074;2023-04-24T04:12:25;8.80;99.90
18658;DHT22;9458;50.942;5.074;2023-04-24T04:14:53;8.80;99.90
18658;DHT22;9458;50.942;5.074;2023-04-24T04:17:20;8.80;99.90
18658;DHT22;9458;50.942;5.074;2023-04-24T04:19:49;8.70;99.90
18658;DHT22;9458;50.942;5.074;2023-04-24T04:22:16;8.70;99.90
18658;DHT22;9458;50.942;5.074;2023-04-24T04:24:43;8.80;99.90
18658;DHT22;9458;50.942;5.074;2023-04-24T04:27:11;8.90;99.90
18658;DHT22;9458;50.942;5.074;2023-04-24T04:29:40;8.90;99.90
18658;DHT22;9458;50.942;5.074;2023-04-24T04:32:08;8.90;99.90
18658;DHT22;9458;50.942;5.074;2023-04-24T04:34:35;8.90;99.90
18658;DHT22;9458;50.942;5.074;2023-04-24T04:37:06;8.90;99.90
18658;DHT22;9458;50.942;5.074;2023-04-24T04:39:33;8.90;99.90
18658;DHT22;9458;50.942;5.074;2023-04-24T04:42:01;8.90;99.90
18658;DHT22;9458;50.942;5.074;2023-04-24T04:44:30;8.90;99.90
18658;DHT22;9458;50.942;5.074;2023-04-24T04:46:59;8.90;99.90
18658;DHT22;9458;50.942;5.074;2023-04-24T04:49:30;8.80;99.90
18658;DHT22;9458;50.942;5.074;2023-04-24T04:51:58;8.80;99.90
18658;DHT22;9458;50.942;5.074;2023-04-24T04:54:25;8.90;99.90
18658;DHT22;9458;50.942;5.074;2023-04-24T04:56:53;8.90;99.90
18658;DHT22;9458;50.942;5.074;2023-04-24T04:59:21;8.90;99.90
18658;DHT22;9458;50.942;5.074;2023-04-24T05:01:49;8.90;99.90
18658;DHT22;9458;50.942;5.074;2023-04-24T05:04:18;9.00;99.90
18658;DHT22;9458;50.942;5.074;2023-04-24T05:06:45;8.90;99.90
18658;DHT22;9458;50.942;5.074;2023-04-24T05:09:13;9.00;99.90
18658;DHT22;9458;50.942;5.074;2023-04-24T05:11:42;9.10;99.90
18658;DHT22;9458;50.942;5.074;2023-04-24T05:14:09;9.10;99.90
18658;DHT22;9458;50.942;5.074;2023-04-24T05:16:38;9.00;99.90
18658;DHT22;9458;50.942;5.074;2023-04-24T05:19:06;9.00;99.90
18658;DHT22;9458;50.942;5.074;2023-04-24T05:21:36;9.10;99.90
18658;DHT22;9458;50.942;5.074;2023-04-24T05:24:05;9.10;99.90
18658;DHT22;9458;50.942;5.074;2023-04-24T05:26:43;9.00;99.90
18658;DHT22;9458;50.942;5.074;2023-04-24T05:29:11;9.00;99.90
18658;DHT22;9458;50.942;5.074;2023-04-24T05:31:39;8.90;99.90
18658;DHT22;9458;50.942;5.074;2023-04-24T05:34:06;8.90;99.90
18658;DHT22;9458;50.942;5.074;2023-04-24T05:36:35;8.90;99.90
18658;DHT22;9458;50.942;5.074;2023-04-24T05:39:03;8.80;99.90
18658;DHT22;9458;50.942;5.074;2023-04-24T05:41:31;8.80;99.90
18658;DHT22;9458;50.942;5.074;2023-04-24T05:43:59;8.70;99.90
18658;DHT22;9458;50.942;5.074;2023-04-24T05:46:29;8.70;99.90
18658;DHT22;9458;50.942;5.074;2023-04-24T05:48:57;8.70;99.90
18658;DHT22;9458;50.942;5.074;2023-04-24T05:51:24;8.70;99.90
18658;DHT22;9458;50.942;5.074;2023-04-24T05:53:53;8.70;99.90
18658;DHT22;9458;50.942;5.074;2023-04-24T05:56:21;8.70;99.90
18658;DHT22;9458;50.942;5.074;2023-04-24T05:58:48;8.70;99.90
18658;DHT22;9458;50.942;5.074;2023-04-24T06:01:15;8.70;99.90
18658;DHT22;9458;50.942;5.074;2023-04-24T06:03:53;8.70;99.90
18658;DHT22;9458;50.942;5.074;2023-04-24T06:06:27;8.70;99.90
18658;DHT22;9458;50.942;5.074;2023-04-24T06:08:59;8.70;99.90
18658;DHT22;9458;50.942;5.074;2023-04-24T06:11:27;8.80;99.90
18658;DHT22;9458;50.942;5.074;2023-04-24T06:13:55;8.70;99.90
18658;DHT22;9458;50.942;5.074;2023-04-24T06:16:23;8.80;99.90
18658;DHT22;9458;50.942;5.074;2023-04-24T06:18:51;8.80;99.90
18658;DHT22;9458;50.942;5.074;2023-04-24T06:21:18;8.70;99.90
18658;DHT22;9458;50.942;5.074;2023-04-24T06:23:46;8.60;99.90
18658;DHT22;9458;50.942;5.074;2023-04-24T06:26:15;8.60;99.90
18658;DHT22;9458;50.942;5.074;2023-04-24T06:28:42;8.60;99.90
18658;DHT22;9458;50.942;5.074;2023-04-24T06:31:09;8.60;99.90
18658;DHT22;9458;50.942;5.074;2023-04-24T06:33:37;8.60;99.90
18658;DHT22;9458;50.942;5.074;2023-04-24T06:36:05;8.60;99.90
18658;DHT22;9458;50.942;5.074;2023-04-24T06:38:33;8.70;99.90
18658;DHT22;9458;50.942;5.074;2023-04-24T06:41:00;8.70;99.90
18658;DHT22;9458;50.942;5.074;2023-04-24T06:43:31;8.70;99.90
18658;DHT22;9458;50.942;5.074;2023-04-24T06:45:59;8.70;99.90
18658;DHT22;9458;50.942;5.074;2023-04-24T06:48:29;8.70;99.90
18658;DHT22;9458;50.942;5.074;2023-04-24T06:50:57;8.70;99.90
18658;DHT22;9458;50.942;5.074;2023-04-24T06:53:24;8.70;99.90
18658;DHT22;9458;50.942;5.074;2023-04-24T06:55:53;8.70;99.90
18658;DHT22;9458;50.942;5.074;2023-04-24T06:58:21;8.70;99.90
18658;DHT22;9458;50.942;5.074;2023-04-24T07:00:51;8.70;99.90
18658;DHT22;9458;50.942;5.074;2023-04-24T07:03:19;8.70;99.90
18658;DHT22;9458;50.942;5.074;2023-04-24T07:05:48;8.80;99.90
18658;DHT22;9458;50.942;5.074;2023-04-24T07:08:17;8.80;99.90
18658;DHT22;9458;50.942;5.074;2023-04-24T07:10:46;8.90;99.90
18658;DHT22;9458;50.942;5.074;2023-04-24T07:13:13;8.90;99.90
18658;DHT22;9458;50.942;5.074;2023-04-24T07:15:41;8.90;99.90
18658;DHT22;9458;50.942;5.074;2023-04-24T07:18:10;9.00;99.90
18658;DHT22;9458;50.942;5.074;2023-04-24T07:20:40;9.00;99.90
18658;DHT22;9458;50.942;5.074;2023-04-24T07:23:08;8.90;99.90
18658;DHT22;9458;50.942;5.074;2023-04-24T07:25:37;9.00;99.90
18658;DHT22;9458;50.942;5.074;2023-04-24T07:28:05;9.00;99.90
18658;DHT22;9458;50.942;5.074;2023-04-24T07:30:32;8.90;99.90
18658;DHT22;9458;50.942;5.074;2023-04-24T07:32:59;8.90;99.90
18658;DHT22;9458;50.942;5.074;2023-04-24T07:35:28;8.90;99.90
18658;DHT22;9458;50.942;5.074;2023-04-24T07:37:56;9.00;99.90
18658;DHT22;9458;50.942;5.074;2023-04-24T07:40:23;9.00;99.90
18658;DHT22;9458;50.942;5.074;2023-04-24T07:42:50;9.00;99.90
18658;DHT22;9458;50.942;5.074;2023-04-24T07:45:18;8.90;99.90
18658;DHT22;9458;50.942;5.074;2023-04-24T07:47:46;9.00;99.90
18658;DHT22;9458;50.942;5.074;2023-04-24T07:50:13;9.00;99.90
18658;DHT22;9458;50.942;5.074;2023-04-24T07:52:42;9.10;99.90
18658;DHT22;9458;50.942;5.074;2023-04-24T07:55:10;9.20;99.90
18658;DHT22;9458;50.942;5.074;2023-04-24T07:57:37;9.20;99.90
18658;DHT22;9458;50.942;5.074;2023-04-24T08:00:06;9.30;99.90
18658;DHT22;9458;50.942;5.074;2023-04-24T08:02:34;9.30;99.90
18658;DHT22;9458;50.942;5.074;2023-04-24T08:05:02;9.20;99.90
18658;DHT22;9458;50.942;5.074;2023-04-24T08:07:30;9.30;99.90
18658;DHT22;9458;50.942;5.074;2023-04-24T08:09:59;9.60;99.90
18658;DHT22;9458;50.942;5.074;2023-04-24T08:12:28;9.90;99.90
18658;DHT22;9458;50.942;5.074;2023-04-24T08:14:55;10.10;99.90
18658;DHT22;9458;50.942;5.074;2023-04-24T08:17:23;10.30;99.90
18658;DHT22;9458;50.942;5.074;2023-04-24T08:19:51;10.50;99.90
18658;DHT22;9458;50.942;5.074;2023-04-24T08:22:25;10.70;99.90
18658;DHT22;9458;50.942;5.074;2023-04-24T08:24:52;10.70;99.90
18658;DHT22;9458;50.942;5.074;2023-04-24T08:27:21;10.80;99.90
18658;DHT22;9458;50.942;5.074;2023-04-24T08:29:49;11.10;99.90
18658;DHT22;9458;50.942;5.074;2023-04-24T08:32:17;11.30;99.90
18658;DHT22;9458;50.942;5.074;2023-04-24T08:34:45;11.50;99.90
18658;DHT22;9458;50.942;5.074;2023-04-24T08:37:13;11.30;99.90
18658;DHT22;9458;50.942;5.074;2023-04-24T08:39:40;11.00;99.90
18658;DHT22;9458;50.942;5.074;2023-04-24T08:42:08;10.80;99.90
18658;DHT22;9458;50.942;5.074;2023-04-24T08:44:38;10.60;99.90
18658;DHT22;9458;50.942;5.074;2023-04-24T08:47:07;10.50;99.90
18658;DHT22;9458;50.942;5.074;2023-04-24T08:49:36;10.30;99.90
18658;DHT22;9458;50.942;5.074;2023-04-24T08:52:05;10.10;99.90
18658;DHT22;9458;50.942;5.074;2023-04-24T08:54:34;10.10;99.90
18658;DHT22;9458;50.942;5.074;2023-04-24T08:57:03;12.80;99.90
18658;DHT22;9458;50.942;5.074;2023-04-24T08:59:44;13.90;99.90
18658;DHT22;9458;50.942;5.074;2023-04-24T09:02:13;13.70;99.90
18658;DHT22;9458;50.942;5.074;2023-04-24T09:04:41;13.40;99.90
18658;DHT22;9458;50.942;5.074;2023-04-24T09:07:10;13.30;99.90
18658;DHT22;9458;50.942;5.074;2023-04-24T09:09:39;13.30;99.90
18658;DHT22;9458;50.942;5.074;2023-04-24T09:12:07;13.10;99.90
18658;DHT22;9458;50.942;5.074;2023-04-24T09:14:36;12.90;99.90
18658;DHT22;9458;50.942;5.074;2023-04-24T09:17:10;12.60;99.90
18658;DHT22;9458;50.942;5.074;2023-04-24T09:19:37;13.80;99.90
18658;DHT22;9458;50.942;5.074;2023-04-24T09:22:05;14.90;99.90
18658;DHT22;9458;50.942;5.074;2023-04-24T09:24:40;15.20;99.90
18658;DHT22;9458;50.942;5.074;2023-04-24T09:27:11;16.80;99.90
18658;DHT22;9458;50.942;5.074;2023-04-24T09:29:53;18.80;99.90
18658;DHT22;9458;50.942;5.074;2023-04-24T09:32:24;18.10;99.90
18658;DHT22;9458;50.942;5.074;2023-04-24T09:35:06;17.10;99.90
18658;DHT22;9458;50.942;5.074;2023-04-24T09:37:37;15.80;99.90
18658;DHT22;9458;50.942;5.074;2023-04-24T09:40:18;14.90;99.90
18658;DHT22;9458;50.942;5.074;2023-04-24T09:42:51;14.10;99.90
18658;DHT22;9458;50.942;5.074;2023-04-24T09:45:20;13.60;99.90
18658;DHT22;9458;50.942;5.074;2023-04-24T09:47:51;13.50;99.90
18658;DHT22;9458;50.942;5.074;2023-04-24T09:50:32;14.10;99.90
18658;DHT22;9458;50.942;5.074;2023-04-24T09:56:49;16.50;99.90
18658;DHT22;9458;50.942;5.074;2023-04-24T09:59:19;18.00;99.90
18658;DHT22;9458;50.942;5.074;2023-04-24T10:01:46;18.40;99.90
18658;DHT22;9458;50.942;5.074;2023-04-24T10:04:25;17.70;99.90
18658;DHT22;9458;50.942;5.074;2023-04-24T10:07:09;16.30;99.90
18658;DHT22;9458;50.942;5.074;2023-04-24T10:10:15;15.20;99.90
18658;DHT22;9458;50.942;5.074;2023-04-24T10:12:53;14.70;99.90
18658;DHT22;9458;50.942;5.074;2023-04-24T10:15:21;14.90;99.90
18658;DHT22;9458;50.942;5.074;2023-04-24T10:17:51;15.40;99.90
18658;DHT22;9458;50.942;5.074;2023-04-24T10:20:30;15.60;99.90
18658;DHT22;9458;50.942;5.074;2023-04-24T10:22:58;15.20;99.90
18658;DHT22;9458;50.942;5.074;2023-04-24T10:25:27;15.00;99.90
18658;DHT22;9458;50.942;5.074;2023-04-24T10:27:56;14.60;99.90
18658;DHT22;9458;50.942;5.074;2023-04-24T10:30:27;14.20;99.90
18658;DHT22;9458;50.942;5.074;2023-04-24T10:32:55;13.90;99.90
18658;DHT22;9458;50.942;5.074;2023-04-24T10:35:24;13.50;99.90
18658;DHT22;9458;50.942;5.074;2023-04-24T10:37:56;13.60;99.90
18658;DHT22;9458;50.942;5.074;2023-04-24T10:40:26;13.60;99.90
18658;DHT22;9458;50.942;5.074;2023-04-24T10:42:53;13.50;99.90
18658;DHT22;9458;50.942;5.074;2023-04-24T10:45:22;13.60;99.90
18658;DHT22;9458;50.942;5.074;2023-04-24T10:47:53;13.80;99.90
18658;DHT22;9458;50.942;5.074;2023-04-24T10:50:20;13.80;99.90
18658;DHT22;9458;50.942;5.074;2023-04-24T10:52:50;13.80;99.90
18658;DHT22;9458;50.942;5.074;2023-04-24T10:55:44;13.50;99.90
18658;DHT22;9458;50.942;5.074;2023-04-24T10:58:12;13.40;99.90
18658;DHT22;9458;50.942;5.074;2023-04-24T11:00:42;13.10;99.90
18658;DHT22;9458;50.942;5.074;2023-04-24T11:03:23;13.20;99.90
18658;DHT22;9458;50.942;5.074;2023-04-24T11:05:59;13.40;99.90
18658;DHT22;9458;50.942;5.074;2023-04-24T11:08:31;13.80;99.90
18658;DHT22;9458;50.942;5.074;2023-04-24T11:11:03;14.20;99.90
18658;DHT22;9458;50.942;5.074;2023-04-24T11:16:36;13.90;99.90
18658;DHT22;9458;50.942;5.074;2023-04-24T11:19:06;13.80;99.90
18658;DHT22;9458;50.942;5.074;2023-04-24T11:21:40;13.80;99.90
18658;DHT22;9458;50.942;5.074;2023-04-24T11:24:49;13.80;99.90
18658;DHT22;9458;50.942;5.074;2023-04-24T11:27:18;14.40;99.90
18658;DHT22;9458;50.942;5.074;2023-04-24T11:29:47;14.50;99.90
18658;DHT22;9458;50.942;5.074;2023-04-24T11:32:23;14.50;99.90
18658;DHT22;9458;50.942;5.074;2023-04-24T11:35:01;14.70;99.90
18658;DHT22;9458;50.942;5.074;2023-04-24T11:37:34;15.00;99.90
18658;DHT22;9458;50.942;5.074;2023-04-24T11:40:06;14.90;99.90
18658;DHT22;9458;50.942;5.074;2023-04-24T11:42:35;15.00;99.90
18658;DHT22;9458;50.942;5.074;2023-04-24T11:45:08;14.80;99.90
18658;DHT22;9458;50.942;5.074;2023-04-24T11:47:36;14.90;99.90
18658;DHT22;9458;50.942;5.074;2023-04-24T11:50:07;14.90;99.90
18658;DHT22;9458;50.942;5.074;2023-04-24T11:52:38;14.60;99.90
18658;DHT22;9458;50.942;5.074;2023-04-24T11:55:25;14.30;99.90
18658;DHT22;9458;50.942;5.074;2023-04-24T11:57:55;14.40;99.90
18658;DHT22;9458;50.942;5.074;2023-04-24T12:00:26;14.60;99.90
18658;DHT22;9458;50.942;5.074;2023-04-24T12:03:05;14.70;99.90
18658;DHT22;9458;50.942;5.074;2023-04-24T12:05:32;14.80;99.90
18658;DHT22;9458;50.942;5.074;2023-04-24T12:08:00;14.80;99.90
18658;DHT22;9458;50.942;5.074;2023-04-24T12:10:30;14.90;99.90
18658;DHT22;9458;50.942;5.074;2023-04-24T12:13:00;15.00;99.90
18658;DHT22;9458;50.942;5.074;2023-04-24T12:15:28;15.00;99.90
18658;DHT22;9458;50.942;5.074;2023-04-24T12:17:56;15.10;99.90
18658;DHT22;9458;50.942;5.074;2023-04-24T12:20:24;14.90;99.90
18658;DHT22;9458;50.942;5.074;2023-04-24T12:22:53;14.90;99.90
18658;DHT22;9458;50.942;5.074;2023-04-24T12:25:22;14.70;99.90
18658;DHT22;9458;50.942;5.074;2023-04-24T12:27:55;14.50;99.90
18658;DHT22;9458;50.942;5.074;2023-04-24T12:30:27;14.50;99.90
18658;DHT22;9458;50.942;5.074;2023-04-24T12:32:57;14.50;99.90
18658;DHT22;9458;50.942;5.074;2023-04-24T12:35:27;14.60;99.90
18658;DHT22;9458;50.942;5.074;2023-04-24T12:37:55;14.70;99.90
18658;DHT22;9458;50.942;5.074;2023-04-24T12:40:25;14.60;99.90
18658;DHT22;9458;50.942;5.074;2023-04-24T12:42:56;14.60;99.90
18658;DHT22;9458;50.942;5.074;2023-04-24T12:45:24;14.50;99.90
18658;DHT22;9458;50.942;5.074;2023-04-24T12:47:53;14.50;99.90
18658;DHT22;9458;50.942;5.074;2023-04-24T12:50:22;14.80;99.90
18658;DHT22;9458;50.942;5.074;2023-04-24T12:52:50;15.00;99.90
18658;DHT22;9458;50.942;5.074;2023-04-24T12:55:18;15.00;99.90
18658;DHT22;9458;50.942;5.074;2023-04-24T12:57:45;14.90;99.90
18658;DHT22;9458;50.942;5.074;2023-04-24T13:00:15;15.00;99.90
18658;DHT22;9458;50.942;5.074;2023-04-24T13:02:46;15.30;99.90
18658;DHT22;9458;50.942;5.074;2023-04-24T13:05:13;15.40;99.90
18658;DHT22;9458;50.942;5.074;2023-04-24T13:07:42;15.30;99.90
18658;DHT22;9458;50.942;5.074;2023-04-24T13:10:10;15.20;99.90
18658;DHT22;9458;50.942;5.074;2023-04-24T13:12:39;15.10;99.90
18658;DHT22;9458;50.942;5.074;2023-04-24T13:15:07;15.20;99.90
18658;DHT22;9458;50.942;5.074;2023-04-24T13:17:37;15.40;99.90
18658;DHT22;9458;50.942;5.074;2023-04-24T13:20:05;15.50;99.90
18658;DHT22;9458;50.942;5.074;2023-04-24T13:22:32;15.50;99.90
18658;DHT22;9458;50.942;5.074;2023-04-24T13:25:00;15.50;99.90
18658;DHT22;9458;50.942;5.074;2023-04-24T13:27:28;15.60;99.90
18658;DHT22;9458;50.942;5.074;2023-04-24T13:29:55;15.50;99.90
18658;DHT22;9458;50.942;5.074;2023-04-24T13:32:23;15.40;99.90
18658;DHT22;9458;50.942;5.074;2023-04-24T13:34:52;15.20;99.90
18658;DHT22;9458;50.942;5.074;2023-04-24T13:37:20;15.00;99.90
18658;DHT22;9458;50.942;5.074;2023-04-24T13:39:53;14.90;99.90
18658;DHT22;9458;50.942;5.074;2023-04-24T13:42:20;14.90;99.90
18658;DHT22;9458;50.942;5.074;2023-04-24T13:44:48;14.80;99.90
18658;DHT22;9458;50.942;5.074;2023-04-24T13:47:17;14.60;99.90
18658;DHT22;9458;50.942;5.074;2023-04-24T13:49:45;14.50;99.90
18658;DHT22;9458;50.942;5.074;2023-04-24T13:52:15;14.30;99.90
18658;DHT22;9458;50.942;5.074;2023-04-24T13:54:42;14.10;99.90
18658;DHT22;9458;50.942;5.074;2023-04-24T13:57:10;14.10;99.90
18658;DHT22;9458;50.942;5.074;2023-04-24T13:59:38;14.00;99.90
18658;DHT22;9458;50.942;5.074;2023-04-24T14:02:05;14.10;99.90
18658;DHT22;9458;50.942;5.074;2023-04-24T14:04:33;14.30;99.90
18658;DHT22;9458;50.942;5.074;2023-04-24T14:07:10;14.40;99.90
18658;DHT22;9458;50.942;5.074;2023-04-24T14:09:49;14.60;99.90
18658;DHT22;9458;50.942;5.074;2023-04-24T14:12:17;14.70;99.90
18658;DHT22;9458;50.942;5.074;2023-04-24T14:14:46;14.70;99.90
18658;DHT22;9458;50.942;5.074;2023-04-24T14:17:15;14.70;99.90
18658;DHT22;9458;50.942;5.074;2023-04-24T14:19:42;14.90;99.90
18658;DHT22;9458;50.942;5.074;2023-04-24T14:22:10;15.00;99.90
18658;DHT22;9458;50.942;5.074;2023-04-24T14:24:37;15.00;99.90
18658;DHT22;9458;50.942;5.074;2023-04-24T14:27:06;14.90;99.90
18658;DHT22;9458;50.942;5.074;2023-04-24T14:29:34;14.80;99.90
18658;DHT22;9458;50.942;5.074;2023-04-24T14:32:02;14.70;99.90
18658;DHT22;9458;50.942;5.074;2023-04-24T14:34:29;14.60;99.90
18658;DHT22;9458;50.942;5.074;2023-04-24T14:36:56;14.50;99.90
18658;DHT22;9458;50.942;5.074;2023-04-24T14:39:25;14.50;99.90
18658;DHT22;9458;50.942;5.074;2023-04-24T14:41:52;14.50;99.90
18658;DHT22;9458;50.942;5.074;2023-04-24T14:44:21;14.60;99.90
18658;DHT22;9458;50.942;5.074;2023-04-24T14:46:48;14.70;99.90
18658;DHT22;9458;50.942;5.074;2023-04-24T14:49:16;14.80;99.90
18658;DHT22;9458;50.942;5.074;2023-04-24T14:51:44;14.70;99.90
18658;DHT22;9458;50.942;5.074;2023-04-24T14:54:11;14.80;99.90
18658;DHT22;9458;50.942;5.074;2023-04-24T14:56:39;14.70;99.90
18658;DHT22;9458;50.942;5.074;2023-04-24T14:59:07;14.60;99.90
18658;DHT22;9458;50.942;5.074;2023-04-24T15:01:36;14.60;99.90
18658;DHT22;9458;50.942;5.074;2023-04-24T15:04:04;14.60;99.90
18658;DHT22;9458;50.942;5.074;2023-04-24T15:06:31;14.50;99.90
18658;DHT22;9458;50.942;5.074;2023-04-24T15:08:58;14.40;99.90
18658;DHT22;9458;50.942;5.074;2023-04-24T15:11:27;14.40;99.90
18658;DHT22;9458;50.942;5.074;2023-04-24T15:13:55;14.40;99.90
18658;DHT22;9458;50.942;5.074;2023-04-24T15:16:23;14.30;99.90
18658;DHT22;9458;50.942;5.074;2023-04-24T15:18:53;14.20;99.90
18658;DHT22;9458;50.942;5.074;2023-04-24T15:21:22;14.30;99.90
18658;DHT22;9458;50.942;5.074;2023-04-24T15:23:49;14.30;99.90
18658;DHT22;9458;50.942;5.074;2023-04-24T15:26:17;14.30;99.90
18658;DHT22;9458;50.942;5.074;2023-04-24T15:28:44;14.40;99.90
18658;DHT22;9458;50.942;5.074;2023-04-24T15:31:13;14.40;99.90
18658;DHT22;9458;50.942;5.074;2023-04-24T15:33:41;14.30;99.90
18658;DHT22;9458;50.942;5.074;2023-04-24T15:36:10;14.30;99.90
18658;DHT22;9458;50.942;5.074;2023-04-24T15:38:38;14.20;99.90
18658;DHT22;9458;50.942;5.074;2023-04-24T15:41:06;14.10;99.90
18658;DHT22;9458;50.942;5.074;2023-04-24T15:43:33;14.10;99.90
18658;DHT22;9458;50.942;5.074;2023-04-24T15:46:01;13.90;99.90
18658;DHT22;9458;50.942;5.074;2023-04-24T15:48:29;13.80;99.90
18658;DHT22;9458;50.942;5.074;2023-04-24T15:50:57;13.60;99.90
18658;DHT22;9458;50.942;5.074;2023-04-24T15:53:27;13.70;99.90
18658;DHT22;9458;50.942;5.074;2023-04-24T15:55:54;13.70;99.90
18658;DHT22;9458;50.942;5.074;2023-04-24T15:58:23;13.60;99.90
18658;DHT22;9458;50.942;5.074;2023-04-24T16:00:51;13.50;99.90
18658;DHT22;9458;50.942;5.074;2023-04-24T16:03:19;13.50;99.90
18658;DHT22;9458;50.942;5.074;2023-04-24T16:05:46;13.60;99.90
18658;DHT22;9458;50.942;5.074;2023-04-24T16:08:14;13.70;99.90
18658;DHT22;9458;50.942;5.074;2023-04-24T16:10:43;13.70;99.90
18658;DHT22;9458;50.942;5.074;2023-04-24T16:13:11;13.70;99.90
18658;DHT22;9458;50.942;5.074;2023-04-24T16:15:40;13.60;99.90